createdAt,value
2023-05-04T00:00:49.473Z,3.50
2023-05-04T00:05:52.012Z,3.33
2023-05-04T00:10:55.803Z,3.60
2023-05-04T00:15:59.723Z,3.53
2023-05-04T00:21:02.210Z,3.53
2023-05-04T00:26:04.690Z,3.40
2023-05-04T00:31:08.537Z,3.25
2023-05-04T00:36:11.502Z,3.40
2023-05-04T00:41:13.986Z,3.10
2023-05-04T00:46:18.356Z,3.10
2023-05-04T00:51:21.894Z,3.38
2023-05-04T00:56:25.200Z,3.43
2023-05-04T01:01:29.114Z,3.90
2023-05-04T01:06:38.975Z,3.70
2023-05-04T01:11:45.059Z,3.88
2023-05-04T01:16:49.272Z,4.03
2023-05-04T01:21:53.145Z,3.90
2023-05-04T01:27:00.667Z,3.50
2023-05-04T01:32:03.905Z,3.87
2023-05-04T01:37:07.804Z,3.75
2023-05-04T01:42:10.393Z,4.00
2023-05-04T01:47:12.877Z,4.33
2023-05-04T01:52:16.747Z,3.60
2023-05-04T01:57:19.279Z,4.57
2023-05-04T02:02:21.908Z,4.25
2023-05-04T02:07:25.820Z,4.93
2023-05-04T02:12:28.363Z,5.10
2023-05-04T02:17:30.907Z,4.63
2023-05-04T02:29:03.408Z,4.95
2023-05-04T02:34:06.027Z,5.10
2023-05-04T02:39:08.503Z,4.60
2023-05-04T02:44:12.317Z,4.33
2023-05-04T02:49:14.828Z,4.53
2023-05-04T02:54:17.338Z,4.68
2023-05-04T02:59:21.159Z,4.10
2023-05-04T03:04:23.694Z,4.32
2023-05-04T03:09:26.265Z,4.90
2023-05-04T03:14:30.915Z,4.57
2023-05-04T03:19:33.429Z,4.85
2023-05-04T03:24:36.971Z,4.75
2023-05-04T03:29:40.872Z,5.60
2023-05-04T03:34:45.590Z,5.00
2023-05-04T03:39:48.100Z,5.47
2023-05-04T03:44:51.909Z,5.40
2023-05-04T03:49:54.411Z,5.33
2023-05-04T03:54:56.946Z,6.07
2023-05-04T04:00:00.806Z,6.28
2023-05-04T04:05:03.660Z,6.10
2023-05-04T04:10:07.716Z,5.25
2023-05-04T04:15:12.521Z,4.85
2023-05-04T04:20:15.946Z,6.17
2023-05-04T04:25:18.643Z,6.00
2023-05-04T04:30:22.855Z,7.28
2023-05-04T04:35:25.594Z,6.65
2023-05-04T04:40:28.150Z,6.80
2023-05-04T04:45:33.732Z,7.55
2023-05-04T04:50:39.559Z,9.10
2023-05-04T04:55:42.588Z,7.83
2023-05-04T05:00:47.496Z,7.40
2023-05-04T05:05:50.037Z,10.43
2023-05-04T05:10:52.509Z,8.67
2023-05-04T05:15:56.300Z,7.90
2023-05-04T05:20:58.808Z,6.30
2023-05-04T05:26:03.143Z,7.63
2023-05-04T05:31:07.329Z,7.83
2023-05-04T05:36:10.460Z,6.60
2023-05-04T05:41:12.946Z,5.82
2023-05-04T05:46:16.866Z,6.60
2023-05-04T05:51:19.384Z,6.07
2023-05-04T05:56:22.093Z,6.45
2023-05-04T06:01:26.502Z,5.97
2023-05-04T06:06:28.986Z,6.27
2023-05-04T06:11:31.818Z,6.05
2023-05-04T06:16:35.708Z,5.53
2023-05-04T06:21:38.263Z,5.67
2023-05-04T06:26:40.742Z,5.57
2023-05-04T06:31:47.959Z,7.18
2023-05-04T06:36:50.887Z,6.47
2023-05-04T06:41:54.739Z,6.15
2023-05-04T06:46:58.558Z,5.55
2023-05-04T06:52:01.303Z,4.77
2023-05-04T06:57:04.376Z,5.07
2023-05-04T07:02:08.234Z,3.70
2023-05-04T07:07:10.711Z,2.60
2023-05-04T07:12:13.191Z,3.70
2023-05-04T07:17:17.026Z,3.60
2023-05-04T07:22:20.814Z,3.63
2023-05-04T07:27:23.291Z,3.60
2023-05-04T07:32:27.522Z,3.50
2023-05-04T07:37:30.103Z,2.97
2023-05-04T07:42:32.672Z,3.37
2023-05-04T07:47:36.572Z,3.60
2023-05-04T07:52:39.213Z,2.92
2023-05-04T07:57:41.972Z,3.30
2023-05-04T08:02:45.875Z,3.37
2023-05-04T08:07:48.478Z,3.55
2023-05-04T08:12:50.994Z,3.30
2023-05-04T08:17:54.917Z,3.67
2023-05-04T08:22:57.922Z,3.58
2023-05-04T08:28:00.398Z,3.30
2023-05-04T08:33:04.238Z,3.40
2023-05-04T08:38:06.808Z,3.47
2023-05-04T08:43:09.383Z,3.45
2023-05-04T08:48:14.305Z,3.10
2023-05-04T08:53:19.999Z,3.20
2023-05-04T08:58:25.835Z,3.00
2023-05-04T09:03:31.089Z,3.25
2023-05-04T09:08:33.851Z,3.30
2023-05-04T09:13:36.608Z,3.42
2023-05-04T09:18:43.980Z,3.45
2023-05-04T09:23:48.078Z,3.60
2023-05-04T09:28:50.649Z,3.30
2023-05-04T09:33:54.694Z,3.35
2023-05-04T09:38:57.276Z,3.05
2023-05-04T09:43:59.767Z,3.30
2023-05-04T09:49:03.751Z,3.10
2023-05-04T09:54:06.647Z,3.35
2023-05-04T09:59:10.966Z,3.60
2023-05-04T10:04:15.087Z,3.22
2023-05-04T10:09:18.174Z,3.80
2023-05-04T10:14:20.821Z,3.30
2023-05-04T10:19:46.891Z,3.50
2023-05-04T10:25:19.085Z,3.20
2023-05-04T10:30:22.103Z,3.67
2023-05-04T10:35:26.840Z,3.53
2023-05-04T10:40:37.923Z,4.10
2023-05-04T10:45:41.060Z,3.40
2023-05-04T10:50:46.054Z,3.77
2023-05-04T10:55:49.165Z,3.25
2023-05-04T11:00:52.244Z,3.15
2023-05-04T11:05:56.161Z,3.17
2023-05-04T11:11:03.549Z,3.53
2023-05-04T11:16:06.360Z,3.45
2023-05-04T11:21:10.575Z,3.63
2023-05-04T11:26:14.764Z,2.83
2023-05-04T11:31:18.722Z,2.90
2023-05-04T11:36:23.217Z,2.70
2023-05-04T11:41:27.151Z,3.10
2023-05-04T11:46:30.450Z,2.88
2023-05-04T11:51:34.351Z,3.00
2023-05-04T11:56:43.664Z,2.80
2023-05-04T12:01:47.731Z,2.90
2023-05-04T12:06:51.622Z,3.10
2023-05-04T12:11:57.076Z,3.08
2023-05-04T12:17:02.843Z,2.70
2023-05-04T12:22:06.667Z,2.60
2023-05-04T12:27:13.477Z,2.72
2023-05-04T12:32:16.156Z,2.40
2023-05-04T12:37:20.143Z,2.72
2023-05-04T12:42:22.651Z,2.55
2023-05-04T12:47:26.091Z,2.80
2023-05-04T12:52:29.921Z,2.67
2023-05-04T12:57:32.449Z,3.03
2023-05-04T13:02:35.021Z,2.80
2023-05-04T13:07:38.918Z,2.33
2023-05-04T13:12:42.136Z,3.13
2023-05-04T13:17:46.055Z,2.80
2023-05-04T13:22:50.550Z,2.63
2023-05-04T13:27:54.387Z,2.72
2023-05-04T13:32:56.961Z,3.40
2023-05-04T13:38:01.000Z,3.00
2023-05-04T13:43:03.469Z,3.20
2023-05-04T13:48:06.148Z,3.20
2023-05-04T13:53:10.925Z,3.08
2023-05-04T13:58:13.748Z,2.77
2023-05-04T14:03:16.394Z,3.15
2023-05-04T14:08:20.355Z,2.60
2023-05-04T14:13:23.279Z,3.13
2023-05-04T14:18:26.545Z,2.72
2023-05-04T14:23:30.495Z,2.97
2023-05-04T14:28:33.038Z,2.73
2023-05-04T14:33:36.063Z,2.30
2023-05-04T14:38:39.852Z,2.38
2023-05-04T14:43:42.818Z,2.53
2023-05-04T14:48:45.308Z,2.77
2023-05-04T14:53:49.145Z,2.90
2023-05-04T14:58:51.642Z,2.22
2023-05-04T15:03:54.291Z,2.50
2023-05-04T15:08:58.223Z,2.30
2023-05-04T15:14:01.560Z,2.83
2023-05-04T15:19:04.078Z,2.40
2023-05-04T15:24:08.474Z,2.27
2023-05-04T15:29:10.982Z,2.15
2023-05-04T15:34:16.948Z,2.20
2023-05-04T15:39:22.230Z,2.30
2023-05-04T15:44:27.568Z,2.20
2023-05-04T15:49:30.049Z,2.30
2023-05-04T15:54:35.102Z,2.27
2023-05-04T15:59:37.618Z,1.95
2023-05-04T16:04:40.100Z,2.15
2023-05-04T16:09:43.957Z,2.10
2023-05-04T16:14:46.574Z,1.90
2023-05-04T16:19:49.089Z,2.00
2023-05-04T16:24:52.923Z,2.40
2023-05-04T16:29:56.197Z,2.10
2023-05-04T16:34:58.693Z,2.78
2023-05-04T16:40:09.738Z,2.88
2023-05-04T16:45:13.950Z,3.07
2023-05-04T16:50:16.483Z,3.00
2023-05-04T16:55:20.703Z,2.83
2023-05-04T17:00:23.643Z,2.70
2023-05-04T17:05:26.455Z,2.70
2023-05-04T17:10:30.384Z,3.10
2023-05-04T17:15:33.148Z,2.90
2023-05-04T17:20:35.721Z,2.67
2023-05-04T17:25:39.732Z,2.30
2023-05-04T17:30:43.602Z,3.10
2023-05-04T17:35:46.109Z,3.10
2023-05-04T17:40:49.963Z,2.97
2023-05-04T17:45:54.940Z,1.80
2023-05-04T17:50:58.741Z,1.97
2023-05-04T17:56:02.649Z,1.53
2023-05-04T18:01:06.937Z,1.60
2023-05-04T18:06:09.602Z,1.55
2023-05-04T18:11:14.055Z,1.47
2023-05-04T18:16:16.549Z,1.50
2023-05-04T18:21:19.237Z,1.40
2023-05-04T18:26:23.108Z,1.60
2023-05-04T18:31:25.823Z,1.38
2023-05-04T18:36:28.944Z,2.55
2023-05-04T18:41:32.846Z,2.47
2023-05-04T18:46:36.018Z,1.63
2023-05-04T18:51:41.527Z,1.90
2023-05-04T18:56:45.437Z,1.70
2023-05-04T19:01:48.014Z,1.47
2023-05-04T19:06:51.713Z,1.20
2023-05-04T19:11:55.710Z,1.60
2023-05-04T19:16:58.543Z,1.30
2023-05-04T19:22:01.331Z,1.20
2023-05-04T19:27:05.559Z,1.30
2023-05-04T19:32:19.684Z,1.23
2023-05-04T19:37:25.876Z,1.70
2023-05-04T19:42:29.744Z,2.00
2023-05-04T19:47:32.375Z,1.40
2023-05-04T19:52:36.232Z,1.60
2023-05-04T19:57:40.724Z,2.88
2023-05-04T20:02:43.416Z,1.60
2023-05-04T20:07:46.153Z,1.90
2023-05-04T20:12:50.144Z,1.70
2023-05-04T20:17:52.808Z,1.95
2023-05-04T20:22:56.011Z,2.10
2023-05-04T20:27:59.930Z,1.87
2023-05-04T20:33:02.462Z,1.98
2023-05-04T20:38:05.011Z,2.00
2023-05-04T20:43:09.170Z,1.97
2023-05-04T20:48:11.794Z,1.85
2023-05-04T20:53:14.324Z,1.92
2023-05-04T20:58:20.122Z,2.17
2023-05-04T21:03:22.867Z,1.90
2023-05-04T21:08:25.626Z,2.08
2023-05-04T21:13:29.466Z,2.67
2023-05-04T21:18:31.975Z,2.30
2023-05-04T21:23:34.536Z,2.30
2023-05-04T21:28:38.416Z,2.22
2023-05-04T21:33:40.928Z,1.80
2023-05-04T21:38:43.655Z,2.05
2023-05-04T21:43:47.539Z,2.25
2023-05-04T21:48:51.579Z,2.50
2023-05-04T21:53:54.103Z,2.10
2023-05-04T21:58:57.976Z,2.28
2023-05-04T22:04:00.486Z,2.33
2023-05-04T22:09:04.035Z,2.03
2023-05-04T22:14:07.915Z,2.10
2023-05-04T22:19:10.789Z,2.13
2023-05-04T22:24:13.283Z,2.30
2023-05-04T22:29:17.100Z,2.28
2023-05-04T22:34:19.604Z,2.30
2023-05-04T22:39:22.756Z,2.70
2023-05-04T22:44:26.583Z,3.03
2023-05-04T22:49:29.052Z,3.80
2023-05-04T22:54:31.661Z,4.53
2023-05-04T22:59:35.695Z,4.80
2023-05-04T23:04:38.244Z,4.95
2023-05-04T23:09:42.742Z,5.25
2023-05-04T23:14:50.232Z,6.30
2023-05-04T23:19:52.733Z,5.68
2023-05-04T23:24:55.249Z,5.63
2023-05-04T23:29:59.053Z,6.50
2023-05-04T23:35:01.573Z,6.10
2023-05-04T23:40:05.245Z,6.32
2023-05-04T23:45:10.251Z,6.17
2023-05-04T23:50:13.015Z,7.40
2023-05-04T23:55:15.586Z,7.32
